New Mount Pleasant, Indiana
Current Conditions -  °F | °C
As of 7:53 AM on Monday 22 Dec 2014 (Local Time) from KMIE Reporting Station
Overcast Overcast  
Wind Chill: -3°   Ceiling: 4000
Heat Index:   Visibility: 8mi
Dew Point: -3°   Wind: 8mph
Humidity: 78%   Direction: 140°SE
Pressure: 29.99"   Gusts: NA
Location:  40.4312°N, 85.0058°W
Report Text: KMIE 221253Z 14007KT 8SM OVC040 01/M03 A2999 RMK AO2 SLP160 T00061028
Loading
Personal Weather Stations






























Interactive Weather Map New forecast layout! Learn more

10-Day Weather Forecast

Advertisements
Track Severe Weather on mobile